Time;durP1;ratioP1;P1;durP2;ratioP2;P2;SDS_P1;SDS_P2;PMS_P1;PMS_P2;Temp;Humidity;BMP_temperature;BMP_pressure;BME280_temperature;BME280_humidity;BME280_pressure;Samples;Min_cycle;Max_cycle;Signal;HPM_P1;HPM_P2
2022/12/17 13:06:50;;;;;;;;;;;;;;;;;;5086999;28;19977;-62
2022/12/17 13:09:15;;;;;;;;;;;;;;;;;;5074259;28;20350;-62
2022/12/17 13:11:40;;;;;;;;;;;;;;;;;;5095092;28;20402;-62
2022/12/17 13:14:05;;;;;;;;;;;;;;;;;;5083690;28;20446;-62
2022/12/17 13:16:31;;;;;;;;;;;;;;;;;;5076111;28;20384;-63
2022/12/17 13:18:56;;;;;;;;;;;;;;;;;;5077693;28;19935;-62
2022/12/17 13:21:21;;;;;;;;;;;;;;;;;;5068177;28;20364;-62
2022/12/17 13:23:46;;;;;;;;;;;;;;;;;;5073005;28;20379;-62
2022/12/17 13:26:11;;;;;;;;;;;;;;;;;;5071442;28;20391;-63
2022/12/17 13:28:36;;;;;;;;;;;;;;;;;;5068742;28;20292;-62
2022/12/17 13:31:02;;;;;;;;;;;;;;;;;;5065266;28;19913;-62
2022/12/17 13:33:27;;;;;;;;;;;;;;;;;;5100135;28;20065;-62
2022/12/17 13:35:52;;;;;;;;;;;;;;;;;;5071117;28;19916;-62
2022/12/17 13:38:17;;;;;;;;;;;;;;;;;;5098610;28;20353;-62
2022/12/17 13:40:42;;;;;;;;;;;;;;;;;;5059020;28;19916;-62
2022/12/17 13:43:07;;;;;;;;;;;;;;;;;;5069628;28;19913;-62
2022/12/17 13:45:32;;;;;;;;;;;;;;;;;;5091026;27;20414;-63
2022/12/17 13:47:58;;;;;;;;;;;;;;;;;;5059162;28;19923;-63
2022/12/17 13:50:23;;;;;;;;;;;;;;;;;;5072309;28;19960;-62
2022/12/17 13:52:48;;;;;;;;;;;;;;;;;;5062563;28;19912;-62
2022/12/17 13:55:14;;;;;;;;;;;;;;;;;;5093133;28;19936;-62
2022/12/17 13:57:39;;;;;;;;;;;;;;;;;;5101089;28;19958;-62
2022/12/17 14:00:04;;;;;;;;;;;;;;;;;;5059640;28;19912;-63
2022/12/17 14:02:29;;;;;;;;;;;;;;;;;;5068966;28;19966;-63
2022/12/17 14:04:54;;;;;;;;;;;;;;;;;;5088295;28;19963;-62
2022/12/17 14:07:19;;;;;;;;;;;;;;;;;;5059979;28;19938;-63
2022/12/17 14:09:45;;;;;;;;;;;;;;;;;;5071065;28;19919;-63
2022/12/17 14:12:22;;;;;;;;;;;;;;;;;;5070068;28;19923;-63
2022/12/17 14:14:47;;;;;;;;;;;;;;;;;;5084748;28;20015;-63
2022/12/17 14:17:12;;;;;;;;;;;;;;;;;;5067908;28;19954;-63
2022/12/17 14:19:37;;;;;;;;;;;;;;;;;;5074174;28;19921;-62
2022/12/17 14:22:03;;;;;;;;;;;;;;;;;;5064370;28;19923;-63
2022/12/17 14:24:28;;;;;;;;;;;;;;;;;;5057549;28;20061;-62
2022/12/17 14:26:53;;;;;;;;;;;;;;;;;;5064282;28;20292;-62
2022/12/17 14:29:18;;;;;;;;;;;;;;;;;;5087651;28;19931;-63
2022/12/17 14:31:43;;;;;;;;;;;;;;;;;;5063772;28;19913;-62
2022/12/17 14:34:09;;;;;;;;;;;;;;;;;;5070680;28;20006;-62
2022/12/17 14:36:35;;;;;;;;;;;;;;;;;;5112503;28;19913;-62
2022/12/17 14:39:00;;;;;;;;;;;;;;;;;;5071534;28;19927;-62
2022/12/17 14:44:09;;;;;;;;;;;;;;;;;;5062895;28;19920;-63
2022/12/17 14:46:34;;;;;;;;;;;;;;;;;;5066950;28;20369;-63
2022/12/17 14:48:59;;;;;;;;;;;;;;;;;;5105423;28;19922;-63
2022/12/17 14:51:24;;;;;;;;;;;;;;;;;;5070747;28;19908;-62
2022/12/17 14:53:49;;;;;;;;;;;;;;;;;;5082584;28;19912;-63
2022/12/17 14:56:14;;;;;;;;;;;;;;;;;;5067531;28;19975;-63
2022/12/17 14:58:40;;;;;;;;;;;;;;;;;;5068195;28;19917;-63
2022/12/17 15:01:05;;;;;;;;;;;;;;;;;;5067894;28;19919;-62
2022/12/17 15:03:30;;;;;;;;;;;;;;;;;;5096229;28;19956;-63
2022/12/17 15:05:55;;;;;;;;;;;;;;;;;;5071206;28;19964;-62
2022/12/17 15:08:20;;;;;;;;;;;;;;;;;;5070720;28;20418;-63
2022/12/17 15:10:45;;;;;;;;;;;;;;;;;;5102280;28;20416;-63
2022/12/17 15:13:10;;;;;;;;;;;;;;;;;;5071525;28;20605;-64
2022/12/17 15:15:36;;;;;;;;;;;;;;;;;;5101438;27;19913;-63
2022/12/17 15:18:01;;;;;;;;;;;;;;;;;;5083072;28;19912;-64
2022/12/17 15:20:26;;;;;;;;;;;;;;;;;;5067479;28;19913;-64
2022/12/17 15:22:51;;;;;;;;;;;;;;;;;;5064536;28;19913;-64
2022/12/17 15:25:16;;;;;;;;;;;;;;;;;;5098277;28;19920;-64
2022/12/17 15:27:41;;;;;;;;;;;;;;;;;;5063056;28;20731;-64
2022/12/17 15:30:06;;;;;;;;;;;;;;;;;;5106962;28;19913;-64
2022/12/17 15:32:32;;;;;;;;;;;;;;;;;;5074759;28;20288;-62
2022/12/17 15:34:57;;;;;;;;;;;;;;;;;;5077680;28;20304;-62
2022/12/17 15:37:22;;;;;;;;;;;;;;;;;;5096554;27;20005;-63
2022/12/17 15:39:47;;;;;;;;;;;;;;;;;;5088292;28;19917;-62
2022/12/17 15:44:56;;;;;;;;;;;;;;;;;;5068630;28;19935;-63
2022/12/17 15:47:21;;;;;;;;;;;;;;;;;;5085569;28;19912;-63
2022/12/17 15:49:46;;;;;;;;;;;;;;;;;;5074864;28;20192;-62
2022/12/17 15:52:13;;;;;;;;;;;;;;;;;;5073009;28;19913;-63
2022/12/17 15:54:39;;;;;;;;;;;;;;;;;;5067140;28;19920;-62
2022/12/17 15:57:04;;;;;;;;;;;;;;;;;;5064866;28;19983;-62
2022/12/17 15:59:29;;;;;;;;;;;;;;;;;;5061957;28;19970;-64
2022/12/17 16:01:54;;;;;;;;;;;;;;;;;;5069933;28;19972;-63
2022/12/17 16:04:19;;;;;;;;;;;;;;;;;;5106118;27;20027;-63
2022/12/17 16:06:45;;;;;;;;;;;;;;;;;;5067433;28;19917;-62
2022/12/17 16:09:10;;;;;;;;;;;;;;;;;;5073440;28;19959;-63
2022/12/17 16:11:35;;;;;;;;;;;;;;;;;;5101931;28;19919;-63
2022/12/17 16:14:00;;;;;;;;;;;;;;;;;;5069428;28;19955;-63
2022/12/17 16:16:25;;;;;;;;;;;;;;;;;;5075100;28;19963;-63
2022/12/17 16:18:50;;;;;;;;;;;;;;;;;;5074023;28;19917;-63
2022/12/17 16:21:15;;;;;;;;;;;;;;;;;;5105221;27;19924;-64
2022/12/17 16:23:40;;;;;;;;;;;;;;;;;;5106928;28;19988;-64
2022/12/17 16:26:06;;;;;;;;;;;;;;;;;;5084529;28;19908;-62
2022/12/17 16:28:31;;;;;;;;;;;;;;;;;;5070766;28;19927;-63
2022/12/17 16:30:56;;;;;;;;;;;;;;;;;;5074692;28;19912;-63
2022/12/17 16:33:21;;;;;;;;;;;;;;;;;;5074525;28;20046;-63
2022/12/17 16:35:46;;;;;;;;;;;;;;;;;;5083250;28;20496;-63
2022/12/17 16:38:11;;;;;;;;;;;;;;;;;;5072106;28;19913;-63
2022/12/17 16:40:37;;;;;;;;;;;;;;;;;;5073434;28;19919;-63
2022/12/17 16:43:02;;;;;;;;;;;;;;;;;;5074309;28;19909;-63
2022/12/17 16:45:27;;;;;;;;;;;;;;;;;;5064060;28;19923;-63
2022/12/17 16:47:52;;;;;;;;;;;;;;;;;;5066208;28;19912;-64
2022/12/17 16:50:17;;;;;;;;;;;;;;;;;;5073571;28;20353;-65
2022/12/17 16:52:42;;;;;;;;;;;;;;;;;;5097876;27;19951;-65
2022/12/17 16:55:07;;;;;;;;;;;;;;;;;;5073139;28;19978;-64
2022/12/17 16:57:32;;;;;;;;;;;;;;;;;;5072188;28;19916;-63
2022/12/17 16:59:58;;;;;;;;;;;;;;;;;;5100686;27;19923;-63
2022/12/17 17:02:23;;;;;;;;;;;;;;;;;;5060502;28;19924;-63
2022/12/17 17:04:48;;;;;;;;;;;;;;;;;;5073280;28;19924;-63
2022/12/17 17:07:13;;;;;;;;;;;;;;;;;;5082312;28;19959;-63
2022/12/17 17:09:38;;;;;;;;;;;;;;;;;;5053767;28;20012;-62
2022/12/17 17:12:03;;;;;;;;;;;;;;;;;;5057995;28;19935;-63
2022/12/17 17:14:29;;;;;;;;;;;;;;;;;;5097001;28;20288;-63
2022/12/17 17:16:54;;;;;;;;;;;;;;;;;;5071513;28;20365;-63
2022/12/17 17:19:19;;;;;;;;;;;;;;;;;;5102524;27;20369;-63
2022/12/17 17:21:44;;;;;;;;;;;;;;;;;;5063582;28;20011;-63
2022/12/17 17:24:09;;;;;;;;;;;;;;;;;;5068717;28;19919;-63
2022/12/17 17:26:34;;;;;;;;;;;;;;;;;;5103998;27;19936;-63
2022/12/17 17:28:59;;;;;;;;;;;;;;;;;;5070926;28;20407;-63
2022/12/17 17:31:25;;;;;;;;;;;;;;;;;;5066212;28;19912;-63
2022/12/17 17:33:50;;;;;;;;;;;;;;;;;;5083545;28;19921;-63
2022/12/17 17:36:15;;;;;;;;;;;;;;;;;;5059201;28;19974;-63
2022/12/17 17:38:40;;;;;;;;;;;;;;;;;;5097042;28;20284;-63
2022/12/17 17:41:05;;;;;;;;;;;;;;;;;;5071661;28;20082;-63
2022/12/17 17:43:30;;;;;;;;;;;;;;;;;;5099110;28;20016;-63
2022/12/17 17:45:56;;;;;;;;;;;;;;;;;;5066350;28;19963;-62
2022/12/17 17:48:21;;;;;;;;;;;;;;;;;;5067173;28;19912;-63
2022/12/17 17:50:46;;;;;;;;;;;;;;;;;;5057600;28;19912;-62
2022/12/17 17:53:11;;;;;;;;;;;;;;;;;;5060334;28;20011;-63
2022/12/17 17:55:36;;;;;;;;;;;;;;;;;;5073289;28;19913;-62
2022/12/17 17:58:01;;;;;;;;;;;;;;;;;;5105186;27;19912;-63
2022/12/17 18:00:26;;;;;;;;;;;;;;;;;;5074659;28;19956;-62
2022/12/17 18:02:51;;;;;;;;;;;;;;;;;;5073456;28;19939;-63
2022/12/17 18:05:17;;;;;;;;;;;;;;;;;;5068397;28;20365;-62
2022/12/17 18:07:42;;;;;;;;;;;;;;;;;;5068364;28;19912;-55
2022/12/17 18:10:07;;;;;;;;;;;;;;;;;;5101155;27;19920;-51
2022/12/17 18:15:16;;;;;;;;;;;;;;;;;;5071078;28;19961;-54
2022/12/17 18:17:41;;;;;;;;;;;;;;;;;;5061066;28;19913;-51
2022/12/17 18:20:06;;;;;;;;;;;;;;;;;;5110045;27;20322;-53
2022/12/17 18:22:31;;;;;;;;;;;;;;;;;;5085519;28;20007;-51
2022/12/17 18:24:56;;;;;;;;;;;;;;;;;;5067651;28;19912;-55
2022/12/17 18:27:21;;;;;;;;;;;;;;;;;;5065171;28;19927;-52
2022/12/17 18:29:46;;;;;;;;;;;;;;;;;;5073404;28;19955;-54
2022/12/17 18:32:12;;;;;;;;;;;;;;;;;;5069180;28;20478;-53
2022/12/17 18:34:37;;;;;;;;;;;;;;;;;;5069524;28;20395;-50
2022/12/17 18:37:04;;;;;;;;;;;;;;;;;;5065938;28;19923;-53
2022/12/17 18:39:29;;;;;;;;;;;;;;;;;;5063895;28;20406;-53
2022/12/17 18:44:40;;;;;;;;;;;;;;;;;;5066782;28;20392;-54
2022/12/17 18:47:05;;;;;;;;;;;;;;;;;;5073426;28;19912;-54
2022/12/17 18:49:30;;;;;;;;;;;;;;;;;;5077681;28;19932;-56
2022/12/17 18:51:55;;;;;;;;;;;;;;;;;;5076235;28;19959;-55
2022/12/17 18:54:20;;;;;;;;;;;;;;;;;;5093566;28;19912;-56
2022/12/17 18:56:46;;;;;;;;;;;;;;;;;;5076204;28;19908;-54
2022/12/17 18:59:11;;;;;;;;;;;;;;;;;;5071273;28;20439;-55
2022/12/17 19:01:36;;;;;;;;;;;;;;;;;;5069701;28;19958;-56
2022/12/17 19:04:01;;;;;;;;;;;;;;;;;;5074662;28;19965;-52
2022/12/17 19:06:26;;;;;;;;;;;;;;;;;;5074314;28;19912;-55
2022/12/17 19:08:51;;;;;;;;;;;;;;;;;;5078789;28;20357;-56
2022/12/17 19:11:16;;;;;;;;;;;;;;;;;;5074619;28;20138;-55
2022/12/17 19:13:42;;;;;;;;;;;;;;;;;;5071713;28;20293;-55
2022/12/17 19:16:07;;;;;;;;;;;;;;;;;;5071149;28;19956;-56
2022/12/17 19:18:32;;;;;;;;;;;;;;;;;;5069084;28;20282;-50
2022/12/17 19:20:57;;;;;;;;;;;;;;;;;;5067258;28;20652;-55
2022/12/17 19:23:23;;;;;;;;;;;;;;;;;;5065106;28;19920;-54
2022/12/17 19:25:48;;;;;;;;;;;;;;;;;;5075538;28;19908;-52
2022/12/17 19:28:13;;;;;;;;;;;;;;;;;;5056227;28;20078;-56
2022/12/17 19:30:38;;;;;;;;;;;;;;;;;;5069616;28;19924;-52
2022/12/17 19:33:03;;;;;;;;;;;;;;;;;;5070743;28;19923;-53
2022/12/17 19:35:28;;;;;;;;;;;;;;;;;;5071108;28;19917;-53
2022/12/17 19:37:53;;;;;;;;;;;;;;;;;;5067389;28;20498;-56
2022/12/17 19:40:18;;;;;;;;;;;;;;;;;;5065700;28;20422;-55
2022/12/17 19:42:44;;;;;;;;;;;;;;;;;;5071428;28;19927;-48
2022/12/17 19:45:09;;;;;;;;;;;;;;;;;;5068584;28;19926;-55
2022/12/17 19:47:34;;;;;;;;;;;;;;;;;;5072208;28;19912;-54
2022/12/17 19:49:59;;;;;;;;;;;;;;;;;;5068455;28;19947;-54
2022/12/17 19:52:24;;;;;;;;;;;;;;;;;;5103390;28;20327;-54
2022/12/17 19:54:49;;;;;;;;;;;;;;;;;;5074984;28;20361;-56
2022/12/17 19:57:15;;;;;;;;;;;;;;;;;;5066530;28;19913;-54
2022/12/17 19:59:40;;;;;;;;;;;;;;;;;;5055128;28;19913;-56
2022/12/17 20:02:05;;;;;;;;;;;;;;;;;;5060916;28;20027;-55
2022/12/17 20:04:30;;;;;;;;;;;;;;;;;;5102035;27;20007;-56
2022/12/17 20:06:55;;;;;;;;;;;;;;;;;;5084164;28;19916;-56
2022/12/17 20:09:20;;;;;;;;;;;;;;;;;;5072247;28;19909;-54
2022/12/17 20:11:46;;;;;;;;;;;;;;;;;;5065222;28;20371;-54
2022/12/17 20:14:11;;;;;;;;;;;;;;;;;;5073538;28;20058;-54
2022/12/17 20:16:36;;;;;;;;;;;;;;;;;;5075834;28;20269;-55
2022/12/17 20:19:01;;;;;;;;;;;;;;;;;;5065900;28;19939;-55
2022/12/17 20:21:26;;;;;;;;;;;;;;;;;;5064065;28;19935;-56
2022/12/17 20:23:52;;;;;;;;;;;;;;;;;;5073079;28;19912;-55
2022/12/17 20:26:17;;;;;;;;;;;;;;;;;;5068230;28;19920;-57
2022/12/17 20:28:42;;;;;;;;;;;;;;;;;;5074358;28;19929;-53
2022/12/17 20:31:07;;;;;;;;;;;;;;;;;;5067910;28;19917;-55
2022/12/17 20:33:32;;;;;;;;;;;;;;;;;;5071895;28;19912;-55
2022/12/17 20:35:57;;;;;;;;;;;;;;;;;;5074290;28;19916;-56
2022/12/17 20:38:23;;;;;;;;;;;;;;;;;;5067446;28;19916;-56
2022/12/17 20:40:48;;;;;;;;;;;;;;;;;;5067044;28;19942;-55
2022/12/17 20:43:13;;;;;;;;;;;;;;;;;;5069892;28;19965;-55
2022/12/17 20:45:38;;;;;;;;;;;;;;;;;;5102341;27;19912;-54
2022/12/17 20:48:03;;;;;;;;;;;;;;;;;;5075768;28;20300;-56
2022/12/17 20:50:28;;;;;;;;;;;;;;;;;;5094210;28;19957;-56
2022/12/17 20:52:54;;;;;;;;;;;;;;;;;;5073773;28;19959;-53
2022/12/17 20:55:19;;;;;;;;;;;;;;;;;;5073952;28;19923;-52
2022/12/17 20:57:44;;;;;;;;;;;;;;;;;;5072323;28;20308;-54
2022/12/17 21:00:09;;;;;;;;;;;;;;;;;;5068256;28;20262;-55
2022/12/17 21:02:35;;;;;;;;;;;;;;;;;;5071313;28;19935;-53
2022/12/17 21:05:00;;;;;;;;;;;;;;;;;;5072036;28;20387;-56
2022/12/17 21:07:25;;;;;;;;;;;;;;;;;;5071732;28;20365;-56
2022/12/17 21:09:50;;;;;;;;;;;;;;;;;;5072155;28;19920;-54
2022/12/17 21:12:15;;;;;;;;;;;;;;;;;;5071868;28;19919;-54
2022/12/17 21:14:40;;;;;;;;;;;;;;;;;;5063384;28;19921;-56
2022/12/17 21:17:05;;;;;;;;;;;;;;;;;;5071197;28;20009;-55
2022/12/17 21:19:31;;;;;;;;;;;;;;;;;;5105188;28;19912;-55
2022/12/17 21:21:56;;;;;;;;;;;;;;;;;;5071980;28;19999;-55
2022/12/17 21:24:22;;;;;;;;;;;;;;;;;;5082672;28;19919;-55
2022/12/17 21:26:47;;;;;;;;;;;;;;;;;;5065697;28;20373;-55
2022/12/17 21:29:13;;;;;;;;;;;;;;;;;;5069850;28;20034;-56
2022/12/17 21:31:39;;;;;;;;;;;;;;;;;;5059752;28;20027;-55
2022/12/17 21:34:04;;;;;;;;;;;;;;;;;;5068713;28;19944;-54
2022/12/17 21:36:29;;;;;;;;;;;;;;;;;;5069971;28;20361;-56
2022/12/17 21:38:54;;;;;;;;;;;;;;;;;;5086841;28;19923;-55
2022/12/17 21:41:19;;;;;;;;;;;;;;;;;;5075297;28;19935;-55
2022/12/17 21:43:44;;;;;;;;;;;;;;;;;;5069683;28;19978;-55
2022/12/17 21:46:10;;;;;;;;;;;;;;;;;;5068068;28;19908;-56
2022/12/17 21:48:35;;;;;;;;;;;;;;;;;;5075001;28;20644;-55
2022/12/17 21:51:00;;;;;;;;;;;;;;;;;;5085781;28;19912;-57
2022/12/17 21:53:25;;;;;;;;;;;;;;;;;;5072863;28;19913;-56
2022/12/17 21:55:50;;;;;;;;;;;;;;;;;;5074051;28;20403;-56
2022/12/17 21:58:17;;;;;;;;;;;;;;;;;;5072324;28;20388;-56
2022/12/17 22:00:42;;;;;;;;;;;;;;;;;;5067987;28;20022;-54
2022/12/17 22:03:07;;;;;;;;;;;;;;;;;;5066357;28;20050;-56
2022/12/17 22:05:32;;;;;;;;;;;;;;;;;;5100587;28;19917;-56
2022/12/17 22:07:57;;;;;;;;;;;;;;;;;;5066311;28;19913;-55
2022/12/17 22:10:22;;;;;;;;;;;;;;;;;;5054875;28;19952;-56
2022/12/17 22:15:32;;;;;;;;;;;;;;;;;;5054836;28;20422;-56
2022/12/17 22:17:57;;;;;;;;;;;;;;;;;;5072260;28;19908;-54
2022/12/17 22:20:22;;;;;;;;;;;;;;;;;;5068411;28;19966;-55
2022/12/17 22:22:47;;;;;;;;;;;;;;;;;;5072971;28;19959;-55
2022/12/17 22:25:12;;;;;;;;;;;;;;;;;;5066690;28;19947;-56
2022/12/17 22:27:37;;;;;;;;;;;;;;;;;;5073770;28;20007;-55
2022/12/17 22:32:59;;;;;;;;;;;;;;;;;;5067789;28;19998;-54
2022/12/17 22:35:24;;;;;;;;;;;;;;;;;;5084844;28;19920;-52
2022/12/17 22:37:49;;;;;;;;;;;;;;;;;;5092712;28;19913;-58
2022/12/17 22:40:17;;;;;;;;;;;;;;;;;;5069353;28;20320;-54
2022/12/17 22:45:26;;;;;;;;;;;;;;;;;;5075551;28;19923;-55
2022/12/17 22:47:51;;;;;;;;;;;;;;;;;;5104126;28;19913;-56
2022/12/17 22:50:16;;;;;;;;;;;;;;;;;;5101651;28;20284;-56
2022/12/17 22:52:41;;;;;;;;;;;;;;;;;;5071257;28;19912;-56
2022/12/17 22:55:07;;;;;;;;;;;;;;;;;;5069096;28;19955;-55
2022/12/17 22:57:32;;;;;;;;;;;;;;;;;;5066330;28;19913;-55
2022/12/17 22:59:57;;;;;;;;;;;;;;;;;;5060139;28;20361;-55
2022/12/17 23:02:22;;;;;;;;;;;;;;;;;;5070451;28;19964;-58
2022/12/17 23:04:47;;;;;;;;;;;;;;;;;;5060517;28;19959;-54
2022/12/17 23:07:12;;;;;;;;;;;;;;;;;;5060340;28;20331;-55
2022/12/17 23:09:37;;;;;;;;;;;;;;;;;;5069567;28;19913;-56
2022/12/17 23:12:49;;;;;;;;;;;;;;;;;;5068780;28;19912;-55
2022/12/17 23:14:47;;;;;;;;;;;;;;;;;;5067919;28;19912;-55
2022/12/17 23:17:13;;;;;;;;;;;;;;;;;;5066440;28;20319;-56
2022/12/17 23:19:38;;;;;;;;;;;;;;;;;;5066641;28;20341;-55
2022/12/17 23:22:03;;;;;;;;;;;;;;;;;;5072743;28;19912;-54
2022/12/17 23:24:28;;;;;;;;;;;;;;;;;;5068919;28;19916;-55
2022/12/17 23:26:53;;;;;;;;;;;;;;;;;;5070462;28;19958;-54
2022/12/17 23:29:18;;;;;;;;;;;;;;;;;;5101944;28;19921;-56
2022/12/17 23:31:43;;;;;;;;;;;;;;;;;;5064536;28;19912;-55
2022/12/17 23:34:09;;;;;;;;;;;;;;;;;;5069677;28;19923;-53
2022/12/17 23:36:34;;;;;;;;;;;;;;;;;;5070697;28;19917;-56
2022/12/17 23:38:59;;;;;;;;;;;;;;;;;;5072785;28;19924;-53
2022/12/17 23:41:24;;;;;;;;;;;;;;;;;;5074523;28;19912;-53
2022/12/17 23:43:49;;;;;;;;;;;;;;;;;;5102634;27;19912;-52
2022/12/17 23:46:15;;;;;;;;;;;;;;;;;;5072346;28;19912;-55
2022/12/17 23:48:40;;;;;;;;;;;;;;;;;;5071562;28;19912;-53
2022/12/17 23:51:05;;;;;;;;;;;;;;;;;;5073204;28;20280;-55
2022/12/17 23:53:30;;;;;;;;;;;;;;;;;;5104809;28;19913;-55
2022/12/17 23:55:55;;;;;;;;;;;;;;;;;;5074305;28;19912;-54
2022/12/17 23:58:20;;;;;;;;;;;;;;;;;;5102896;28;19913;-54
